Time;durP1;ratioP1;P1;durP2;ratioP2;P2;SDS_P1;SDS_P2;PMS_P1;PMS_P2;Temp;Humidity;BMP_temperature;BMP_pressure;BME280_temperature;BME280_humidity;BME280_pressure;Samples;Min_cycle;Max_cycle;Signal;HPM_P1;HPM_P2
2023/01/14 00:00:14;;;;;;;0.70;0.60;;;;;;;;;;6159822;23;20520;-73
2023/01/14 00:02:40;;;;;;;0.60;0.60;;;;;;;;;;6159532;23;20429;-72
2023/01/14 00:05:07;;;;;;;0.60;0.60;;;;;;;;;;6135073;23;20466;-73
2023/01/14 00:07:38;;;;;;;0.60;0.60;;;;;;;;;;6157753;23;20407;-73
2023/01/14 00:10:05;;;;;;;0.67;0.60;;;;;;;;;;6157696;23;20511;-73
2023/01/14 00:12:33;;;;;;;0.67;0.63;;;;;;;;;;6133965;23;20407;-73
2023/01/14 00:15:01;;;;;;;0.60;0.60;;;;;;;;;;6158651;23;20444;-74
2023/01/14 00:17:27;;;;;;;1.43;1.33;;;;;;;;;;6134615;23;20413;-74
2023/01/14 00:19:54;;;;;;;0.70;0.70;;;;;;;;;;6159859;23;20746;-75
2023/01/14 00:22:21;;;;;;;0.70;0.60;;;;;;;;;;6135144;23;20408;-73
2023/01/14 00:24:48;;;;;;;0.70;0.70;;;;;;;;;;6158839;23;20408;-73
2023/01/14 00:27:15;;;;;;;0.60;0.60;;;;;;;;;;6157058;23;20484;-74
2023/01/14 00:29:43;;;;;;;0.60;0.60;;;;;;;;;;6158621;23;20416;-74
2023/01/14 00:32:10;;;;;;;0.67;0.63;;;;;;;;;;6156902;23;20404;-73
2023/01/14 00:34:37;;;;;;;0.70;0.70;;;;;;;;;;6134599;23;20516;-73
2023/01/14 00:37:04;;;;;;;0.60;0.60;;;;;;;;;;6158570;23;20739;-73
2023/01/14 00:39:31;;;;;;;0.60;0.60;;;;;;;;;;6159073;23;20551;-73
2023/01/14 00:41:58;;;;;;;0.60;0.60;;;;;;;;;;6159702;23;20399;-73
2023/01/14 00:44:26;;;;;;;0.70;0.70;;;;;;;;;;6160180;23;20397;-73
2023/01/14 00:46:54;;;;;;;0.60;0.60;;;;;;;;;;6133566;23;20928;-73
2023/01/14 00:49:23;;;;;;;0.60;0.60;;;;;;;;;;6183815;23;20931;-73
2023/01/14 00:51:50;;;;;;;0.67;0.60;;;;;;;;;;6157211;23;20778;-73
2023/01/14 00:54:18;;;;;;;0.70;0.70;;;;;;;;;;6185073;23;20646;-72
2023/01/14 00:56:46;;;;;;;0.80;0.80;;;;;;;;;;6158775;23;20426;-72
2023/01/14 00:59:17;;;;;;;0.70;0.70;;;;;;;;;;6159364;23;20408;-72
2023/01/14 01:01:44;;;;;;;0.70;0.60;;;;;;;;;;6159119;23;20423;-73
2023/01/14 01:04:14;;;;;;;0.67;0.60;;;;;;;;;;6158086;23;20488;-73
2023/01/14 01:06:40;;;;;;;0.70;0.60;;;;;;;;;;6157099;23;20429;-73
2023/01/14 01:09:07;;;;;;;0.60;0.60;;;;;;;;;;6131861;23;20725;-74
2023/01/14 01:11:37;;;;;;;0.70;0.60;;;;;;;;;;6135012;23;20406;-72
2023/01/14 01:14:04;;;;;;;0.70;0.67;;;;;;;;;;6134631;23;20417;-74
2023/01/14 01:16:31;;;;;;;0.60;0.60;;;;;;;;;;6157317;23;20468;-73
2023/01/14 01:18:58;;;;;;;0.60;0.60;;;;;;;;;;6134316;23;20432;-74
2023/01/14 01:21:28;;;;;;;0.70;0.70;;;;;;;;;;6134266;23;20416;-74
2023/01/14 01:23:55;;;;;;;0.70;0.70;;;;;;;;;;6158151;23;20489;-73
2023/01/14 01:26:23;;;;;;;0.60;0.60;;;;;;;;;;6158556;23;20387;-73
2023/01/14 01:28:51;;;;;;;0.70;0.60;;;;;;;;;;6155729;23;20409;-73
2023/01/14 01:31:18;;;;;;;0.60;0.60;;;;;;;;;;6159114;23;20476;-73
2023/01/14 01:33:45;;;;;;;0.60;0.60;;;;;;;;;;6157621;23;21001;-73
2023/01/14 01:36:13;;;;;;;0.67;0.60;;;;;;;;;;6133275;23;20466;-73
2023/01/14 01:38:42;;;;;;;0.70;0.70;;;;;;;;;;6157368;23;20440;-73
2023/01/14 01:41:13;;;;;;;0.67;0.63;;;;;;;;;;6157738;23;20429;-74
2023/01/14 01:43:55;;;;;;;0.70;0.70;;;;;;;;;;6157821;23;20419;-73
2023/01/14 01:46:22;;;;;;;0.60;0.60;;;;;;;;;;6134000;23;20407;-73
2023/01/14 01:48:49;;;;;;;0.60;0.60;;;;;;;;;;6182694;23;20889;-74
2023/01/14 01:51:18;;;;;;;0.70;0.70;;;;;;;;;;6158295;23;20498;-73
2023/01/14 01:53:49;;;;;;;0.60;0.60;;;;;;;;;;6158584;23;20457;-73
2023/01/14 01:56:18;;;;;;;0.70;0.60;;;;;;;;;;6157432;23;20815;-72
2023/01/14 01:58:45;;;;;;;0.70;0.60;;;;;;;;;;6158124;23;20945;-73
2023/01/14 02:01:12;;;;;;;0.70;0.60;;;;;;;;;;6157381;23;20409;-73
2023/01/14 02:03:40;;;;;;;0.60;0.60;;;;;;;;;;6158072;23;20444;-73
2023/01/14 02:06:07;;;;;;;0.70;0.70;;;;;;;;;;6157585;23;20735;-73
2023/01/14 02:08:36;;;;;;;0.67;0.60;;;;;;;;;;6157180;23;20477;-73
2023/01/14 02:11:10;;;;;;;0.70;0.60;;;;;;;;;;6133006;23;20416;-73
2023/01/14 02:13:43;;;;;;;0.70;0.70;;;;;;;;;;6134026;23;20412;-73
2023/01/14 02:16:14;;;;;;;0.77;0.77;;;;;;;;;;6157203;23;20444;-72
2023/01/14 02:18:53;;;;;;;0.70;0.70;;;;;;;;;;6156663;23;20802;-73
2023/01/14 02:21:21;;;;;;;0.60;0.60;;;;;;;;;;6133674;23;20445;-73
2023/01/14 02:24:11;;;;;;;0.70;0.70;;;;;;;;;;6133566;23;20415;-72
2023/01/14 02:26:47;;;;;;;0.60;0.60;;;;;;;;;;6156749;23;20418;-72
2023/01/14 02:29:26;;;;;;;0.70;0.70;;;;;;;;;;6157809;23;20414;-72
2023/01/14 02:31:56;;;;;;;0.70;0.70;;;;;;;;;;6133043;23;20413;-72
2023/01/14 02:34:32;;;;;;;0.70;0.67;;;;;;;;;;6157748;23;20447;-73
2023/01/14 02:37:04;;;;;;;0.73;0.73;;;;;;;;;;6132919;23;20511;-72
2023/01/14 02:39:35;;;;;;;0.60;0.60;;;;;;;;;;6157459;23;20446;-73
2023/01/14 02:44:58;;;;;;;0.60;0.60;;;;;;;;;;6155712;23;20413;-72
2023/01/14 02:47:27;;;;;;;0.60;0.60;;;;;;;;;;6158523;23;20813;-72
2023/01/14 02:49:57;;;;;;;0.60;0.60;;;;;;;;;;6156866;23;20489;-72
2023/01/14 02:52:25;;;;;;;0.70;0.60;;;;;;;;;;6157832;23;20409;-71
2023/01/14 02:54:53;;;;;;;0.60;0.53;;;;;;;;;;6156167;23;20877;-73
2023/01/14 02:57:31;;;;;;;0.70;0.70;;;;;;;;;;6132515;23;20449;-72
2023/01/14 03:00:02;;;;;;;0.60;0.60;;;;;;;;;;6158161;23;20402;-73
2023/01/14 03:02:35;;;;;;;0.60;0.60;;;;;;;;;;6157239;23;20466;-73
2023/01/14 03:05:06;;;;;;;0.70;0.60;;;;;;;;;;6156098;23;20769;-72
2023/01/14 03:07:36;;;;;;;0.60;0.60;;;;;;;;;;6157309;23;20933;-73
2023/01/14 03:10:06;;;;;;;0.60;0.60;;;;;;;;;;6133165;23;20479;-73
2023/01/14 03:12:42;;;;;;;0.70;0.60;;;;;;;;;;6157164;23;20425;-70
2023/01/14 03:15:23;;;;;;;0.90;0.83;;;;;;;;;;6133512;23;20993;-72
2023/01/14 03:17:58;;;;;;;0.70;0.60;;;;;;;;;;6156561;23;20517;-73
2023/01/14 03:20:36;;;;;;;0.70;0.60;;;;;;;;;;6157073;23;20525;-73
2023/01/14 03:23:10;;;;;;;0.70;0.70;;;;;;;;;;6133726;23;20417;-72
2023/01/14 03:25:47;;;;;;;0.70;0.60;;;;;;;;;;6156756;23;20423;-73
2023/01/14 03:28:31;;;;;;;0.70;0.70;;;;;;;;;;6134369;23;20888;-73
2023/01/14 03:31:07;;;;;;;0.70;0.60;;;;;;;;;;6157578;23;20751;-73
2023/01/14 03:33:47;;;;;;;0.70;0.70;;;;;;;;;;6157080;23;20419;-73
2023/01/14 03:36:19;;;;;;;0.70;0.70;;;;;;;;;;6182165;23;20428;-73
2023/01/14 03:38:58;;;;;;;0.70;0.70;;;;;;;;;;6157655;23;20421;-73
2023/01/14 03:44:19;;;;;;;0.70;0.60;;;;;;;;;;6183208;23;20400;-73
2023/01/14 03:46:54;;;;;;;0.63;0.60;;;;;;;;;;6182312;23;20372;-74
2023/01/14 03:49:26;;;;;;;0.70;0.67;;;;;;;;;;6157695;23;20491;-72
2023/01/14 03:52:04;;;;;;;0.70;0.60;;;;;;;;;;6184234;23;20377;-71
2023/01/14 03:54:36;;;;;;;0.60;0.60;;;;;;;;;;6156946;23;20385;-74
2023/01/14 03:57:09;;;;;;;0.67;0.60;;;;;;;;;;6155854;23;20441;-72
2023/01/14 03:59:44;;;;;;;0.60;0.60;;;;;;;;;;6158759;23;20436;-73
2023/01/14 04:02:14;;;;;;;0.70;0.70;;;;;;;;;;6159388;23;20468;-72
2023/01/14 04:04:48;;;;;;;0.60;0.60;;;;;;;;;;6157830;23;20745;-72
2023/01/14 04:07:16;;;;;;;0.70;0.70;;;;;;;;;;6158568;23;20394;-71
2023/01/14 04:09:52;;;;;;;0.70;0.60;;;;;;;;;;6159750;23;20415;-73
2023/01/14 04:12:22;;;;;;;0.70;0.60;;;;;;;;;;6159860;23;20450;-71
2023/01/14 04:17:46;;;;;;;0.67;0.60;;;;;;;;;;6184111;23;20491;-73
2023/01/14 04:20:18;;;;;;;0.60;0.60;;;;;;;;;;6158640;23;20496;-73
2023/01/14 04:22:47;;;;;;;0.70;0.70;;;;;;;;;;6158035;23;20476;-73
2023/01/14 04:25:19;;;;;;;0.60;0.60;;;;;;;;;;6158440;23;20510;-73
2023/01/14 04:27:51;;;;;;;0.70;0.67;;;;;;;;;;6135881;23;20446;-72
2023/01/14 04:30:23;;;;;;;1.90;1.13;;;;;;;;;;6159523;23;20769;-72
2023/01/14 04:32:55;;;;;;;0.70;0.70;;;;;;;;;;6158316;23;20461;-73
2023/01/14 04:35:24;;;;;;;0.70;0.70;;;;;;;;;;6158224;23;20440;-73
2023/01/14 04:37:56;;;;;;;0.70;0.70;;;;;;;;;;6158607;23;20530;-72
2023/01/14 04:40:26;;;;;;;0.70;0.70;;;;;;;;;;6134326;23;20400;-73
2023/01/14 04:42:58;;;;;;;0.70;0.67;;;;;;;;;;6157662;23;20420;-73
2023/01/14 04:45:31;;;;;;;0.70;0.63;;;;;;;;;;6185438;23;20405;-72
2023/01/14 04:48:02;;;;;;;0.70;0.60;;;;;;;;;;6159295;23;20421;-72
2023/01/14 04:50:41;;;;;;;0.63;0.60;;;;;;;;;;6158847;23;20415;-73
2023/01/14 04:53:15;;;;;;;0.63;0.60;;;;;;;;;;6183632;23;20381;-71
2023/01/14 04:55:47;;;;;;;0.70;0.60;;;;;;;;;;6158811;23;20382;-72
2023/01/14 04:58:17;;;;;;;0.70;0.70;;;;;;;;;;6159419;23;20391;-72
2023/01/14 05:00:50;;;;;;;0.70;0.60;;;;;;;;;;6183677;23;20391;-71
2023/01/14 05:03:23;;;;;;;0.67;0.60;;;;;;;;;;6158488;23;20431;-71
2023/01/14 05:05:54;;;;;;;0.60;0.60;;;;;;;;;;6159057;23;20413;-73
2023/01/14 05:08:29;;;;;;;0.70;0.70;;;;;;;;;;6158990;23;20443;-73
2023/01/14 05:11:02;;;;;;;0.70;0.60;;;;;;;;;;6183552;23;20433;-71
2023/01/14 05:13:32;;;;;;;0.70;0.70;;;;;;;;;;6185080;23;20729;-72
2023/01/14 05:16:04;;;;;;;0.63;0.60;;;;;;;;;;6159177;23;20418;-71
2023/01/14 05:18:34;;;;;;;0.70;0.60;;;;;;;;;;6156038;23;20410;-71
2023/01/14 05:21:04;;;;;;;0.63;0.60;;;;;;;;;;6158755;23;20413;-73
2023/01/14 05:23:46;;;;;;;0.60;0.60;;;;;;;;;;6157687;23;20463;-72
2023/01/14 05:26:17;;;;;;;0.70;0.60;;;;;;;;;;6158817;23;20744;-74
2023/01/14 05:28:50;;;;;;;21.10;1.50;;;;;;;;;;6184153;23;20376;-73
2023/01/14 05:31:20;;;;;;;0.70;0.67;;;;;;;;;;6158527;23;20451;-73
2023/01/14 05:33:54;;;;;;;0.70;0.60;;;;;;;;;;6160500;23;20434;-72
2023/01/14 05:36:29;;;;;;;0.70;0.60;;;;;;;;;;6159381;23;20453;-73
2023/01/14 05:38:59;;;;;;;0.70;0.67;;;;;;;;;;6182412;23;20462;-74
2023/01/14 05:41:26;;;;;;;0.70;0.60;;;;;;;;;;6159261;23;20392;-74
2023/01/14 05:46:40;;;;;;;0.70;0.60;;;;;;;;;;6157806;23;20504;-74
2023/01/14 05:49:08;;;;;;;0.90;0.90;;;;;;;;;;6133365;23;20489;-72
2023/01/14 05:51:35;;;;;;;0.70;0.60;;;;;;;;;;6184054;23;20393;-72
2023/01/14 05:54:01;;;;;;;0.70;0.70;;;;;;;;;;6158781;23;20749;-73
2023/01/14 05:56:28;;;;;;;0.70;0.60;;;;;;;;;;6157822;23;20431;-72
2023/01/14 05:58:55;;;;;;;0.70;0.60;;;;;;;;;;6131482;23;20445;-72
2023/01/14 06:06:56;;;;;;;0.70;0.70;;;;;;;;;;6157268;23;20465;-72
2023/01/14 06:09:23;;;;;;;0.70;0.70;;;;;;;;;;6157583;23;20973;-72
2023/01/14 06:12:02;;;;;;;0.70;0.70;;;;;;;;;;6133064;23;21006;-72
2023/01/14 06:14:29;;;;;;;0.70;0.60;;;;;;;;;;6158616;23;20434;-72
2023/01/14 06:16:57;;;;;;;0.60;0.60;;;;;;;;;;6155166;23;20455;-73
2023/01/14 06:19:25;;;;;;;0.70;0.70;;;;;;;;;;6157908;23;20437;-73
2023/01/14 06:21:52;;;;;;;0.70;0.63;;;;;;;;;;6158485;23;20405;-73
2023/01/14 06:24:18;;;;;;;0.60;0.60;;;;;;;;;;6133885;23;20403;-71
2023/01/14 06:26:45;;;;;;;0.70;0.60;;;;;;;;;;6132513;23;20875;-72
2023/01/14 06:29:13;;;;;;;0.70;0.60;;;;;;;;;;6157871;23;20731;-73
2023/01/14 06:31:40;;;;;;;0.60;0.60;;;;;;;;;;6132844;23;20494;-73
2023/01/14 06:34:07;;;;;;;0.70;0.70;;;;;;;;;;6157451;23;20414;-72
2023/01/14 06:36:37;;;;;;;0.70;0.60;;;;;;;;;;6133336;23;20464;-74
2023/01/14 06:39:04;;;;;;;0.70;0.60;;;;;;;;;;6156948;23;20397;-71
2023/01/14 06:41:32;;;;;;;0.67;0.60;;;;;;;;;;6158231;23;20792;-72
2023/01/14 06:43:59;;;;;;;0.60;0.60;;;;;;;;;;6157348;23;20716;-71
2023/01/14 06:46:26;;;;;;;0.70;0.70;;;;;;;;;;6157661;23;20763;-72
2023/01/14 06:48:53;;;;;;;0.60;0.60;;;;;;;;;;6157853;23;20487;-72
2023/01/14 06:51:20;;;;;;;0.60;0.60;;;;;;;;;;6157646;23;20369;-74
2023/01/14 06:53:49;;;;;;;0.70;0.60;;;;;;;;;;6132881;23;20416;-73
2023/01/14 06:56:17;;;;;;;0.60;0.60;;;;;;;;;;6157345;23;20420;-72
2023/01/14 06:58:46;;;;;;;0.70;0.60;;;;;;;;;;6132215;23;20401;-72
2023/01/14 07:01:13;;;;;;;0.70;0.70;;;;;;;;;;6158048;23;20898;-71
2023/01/14 07:03:40;;;;;;;0.60;0.60;;;;;;;;;;6133252;23;20404;-72
2023/01/14 07:06:07;;;;;;;0.70;0.60;;;;;;;;;;6156505;23;20772;-71
2023/01/14 07:08:33;;;;;;;0.70;0.63;;;;;;;;;;6133466;23;20866;-73
2023/01/14 07:11:02;;;;;;;0.70;0.60;;;;;;;;;;6155921;23;20403;-73
2023/01/14 07:13:29;;;;;;;0.70;0.70;;;;;;;;;;6157798;23;20430;-73
2023/01/14 07:15:57;;;;;;;0.70;0.60;;;;;;;;;;6132628;23;20502;-72
2023/01/14 07:18:25;;;;;;;0.70;0.60;;;;;;;;;;6157617;23;20507;-72
2023/01/14 07:20:54;;;;;;;0.70;0.60;;;;;;;;;;6157540;23;20896;-72
2023/01/14 07:23:21;;;;;;;0.60;0.60;;;;;;;;;;6158203;23;20410;-71
2023/01/14 07:25:48;;;;;;;0.60;0.60;;;;;;;;;;6156422;23;20401;-71
2023/01/14 07:28:17;;;;;;;0.70;0.60;;;;;;;;;;6132500;23;20410;-72
2023/01/14 07:30:43;;;;;;;0.70;0.60;;;;;;;;;;6131553;23;20432;-72
2023/01/14 07:33:11;;;;;;;0.60;0.60;;;;;;;;;;6157821;23;20400;-71
2023/01/14 07:35:37;;;;;;;0.70;0.60;;;;;;;;;;6133866;23;20775;-73
2023/01/14 07:38:04;;;;;;;0.70;0.60;;;;;;;;;;6158249;23;20434;-72
2023/01/14 07:40:31;;;;;;;0.60;0.60;;;;;;;;;;6159637;23;20493;-73
2023/01/14 07:42:58;;;;;;;0.60;0.60;;;;;;;;;;6159380;23;20440;-73
2023/01/14 07:45:27;;;;;;;0.63;0.60;;;;;;;;;;6133319;23;20444;-72
2023/01/14 07:47:54;;;;;;;0.60;0.60;;;;;;;;;;6133192;23;20454;-73
2023/01/14 07:50:22;;;;;;;0.60;0.60;;;;;;;;;;6159252;23;20417;-71
2023/01/14 07:52:53;;;;;;;0.67;0.60;;;;;;;;;;6157775;23;20867;-71
2023/01/14 07:55:20;;;;;;;0.70;0.70;;;;;;;;;;6133571;23;20438;-73
2023/01/14 07:57:48;;;;;;;0.70;0.70;;;;;;;;;;6156809;23;20981;-73
2023/01/14 08:00:16;;;;;;;0.60;0.60;;;;;;;;;;6134325;23;20409;-74
2023/01/14 08:02:44;;;;;;;0.60;0.60;;;;;;;;;;6158224;23;20421;-71
2023/01/14 08:05:11;;;;;;;0.60;0.60;;;;;;;;;;6157637;23;20430;-71
2023/01/14 08:07:38;;;;;;;0.70;0.60;;;;;;;;;;6158108;23;20437;-72
2023/01/14 08:10:06;;;;;;;0.60;0.60;;;;;;;;;;6158626;23;20409;-72
2023/01/14 08:12:32;;;;;;;0.67;0.60;;;;;;;;;;6158089;23;20750;-72
2023/01/14 08:14:59;;;;;;;0.60;0.60;;;;;;;;;;6132750;23;20428;-74
2023/01/14 08:17:26;;;;;;;0.70;0.70;;;;;;;;;;6183669;23;20736;-74
2023/01/14 08:19:55;;;;;;;0.60;0.60;;;;;;;;;;6184256;23;20761;-73
2023/01/14 08:22:22;;;;;;;1.47;1.37;;;;;;;;;;6184507;23;20410;-73
2023/01/14 08:24:50;;;;;;;0.60;0.60;;;;;;;;;;6158445;23;20461;-73
2023/01/14 08:27:17;;;;;;;0.60;0.60;;;;;;;;;;6184604;23;20369;-73
2023/01/14 08:29:44;;;;;;;0.60;0.60;;;;;;;;;;6157717;23;20405;-73
2023/01/14 08:32:11;;;;;;;0.70;0.70;;;;;;;;;;6157543;23;20429;-73
2023/01/14 08:34:38;;;;;;;0.60;0.53;;;;;;;;;;6184446;23;20460;-73
2023/01/14 08:37:06;;;;;;;0.60;0.60;;;;;;;;;;6183495;23;20403;-73
2023/01/14 08:39:33;;;;;;;0.60;0.60;;;;;;;;;;6158259;23;20416;-73
2023/01/14 08:42:00;;;;;;;0.60;0.60;;;;;;;;;;6180796;23;20427;-73
2023/01/14 08:44:27;;;;;;;0.60;0.50;;;;;;;;;;6156613;23;20412;-71
2023/01/14 08:46:53;;;;;;;0.63;0.63;;;;;;;;;;6157576;23;20394;-73
2023/01/14 08:49:20;;;;;;;0.60;0.60;;;;;;;;;;6159084;23;20748;-71
2023/01/14 08:51:49;;;;;;;0.70;0.70;;;;;;;;;;6156864;23;20426;-72
2023/01/14 08:54:20;;;;;;;0.60;0.60;;;;;;;;;;6183552;23;20373;-72
2023/01/14 08:56:47;;;;;;;0.60;0.60;;;;;;;;;;6158529;23;20738;-73
2023/01/14 08:59:15;;;;;;;0.60;0.60;;;;;;;;;;6184675;23;20429;-72
2023/01/14 09:01:41;;;;;;;0.60;0.60;;;;;;;;;;6158473;23;20394;-71
2023/01/14 09:04:19;;;;;;;0.70;0.70;;;;;;;;;;6135527;23;20787;-73
2023/01/14 09:17:53;;;;;;;0.60;0.60;;;;;;;;;;6182484;23;20493;-73
2023/01/14 09:20:23;;;;;;;0.60;0.60;;;;;;;;;;6156265;23;20427;-74
2023/01/14 09:22:50;;;;;;;0.60;0.60;;;;;;;;;;6156566;23;20402;-74
2023/01/14 09:25:19;;;;;;;0.70;0.70;;;;;;;;;;6156359;23;20418;-74
2023/01/14 09:27:52;;;;;;;0.70;0.60;;;;;;;;;;6182658;23;20379;-73
2023/01/14 09:30:19;;;;;;;0.60;0.60;;;;;;;;;;6183085;23;20420;-73
2023/01/14 09:32:47;;;;;;;0.70;0.70;;;;;;;;;;6156196;23;20412;-74
2023/01/14 09:35:13;;;;;;;0.60;0.60;;;;;;;;;;6182560;23;20742;-70
2023/01/14 09:37:40;;;;;;;0.60;0.60;;;;;;;;;;6157455;23;20448;-73
2023/01/14 09:40:08;;;;;;;0.70;0.60;;;;;;;;;;6183477;23;20397;-72
2023/01/14 09:42:38;;;;;;;0.60;0.60;;;;;;;;;;6157195;23;20521;-73
2023/01/14 09:45:10;;;;;;;0.70;0.70;;;;;;;;;;6182230;23;20377;-74
2023/01/14 09:47:45;;;;;;;0.60;0.60;;;;;;;;;;6182177;23;20423;-73
2023/01/14 09:50:14;;;;;;;0.70;0.70;;;;;;;;;;6156493;23;20447;-72
2023/01/14 09:52:54;;;;;;;0.63;0.60;;;;;;;;;;6183833;23;20396;-72
2023/01/14 09:55:23;;;;;;;0.60;0.60;;;;;;;;;;6156328;23;20424;-73
2023/01/14 09:57:53;;;;;;;0.70;0.70;;;;;;;;;;6183422;23;20447;-72
2023/01/14 10:00:32;;;;;;;0.67;0.60;;;;;;;;;;6183604;23;20416;-74
2023/01/14 10:03:09;;;;;;;0.70;0.60;;;;;;;;;;6157190;23;20457;-75
2023/01/14 10:05:37;;;;;;;0.70;0.60;;;;;;;;;;6181574;23;20419;-74
2023/01/14 10:08:07;;;;;;;0.70;0.67;;;;;;;;;;6182483;23;20400;-72
2023/01/14 10:10:35;;;;;;;0.70;0.70;;;;;;;;;;6182087;23;20384;-71
2023/01/14 10:13:06;;;;;;;0.70;0.70;;;;;;;;;;6182850;23;20492;-72
2023/01/14 10:15:35;;;;;;;0.70;0.70;;;;;;;;;;6156384;23;20504;-74
2023/01/14 10:18:09;;;;;;;0.70;0.60;;;;;;;;;;6157567;23;20439;-74
2023/01/14 10:20:39;;;;;;;0.70;0.70;;;;;;;;;;6155347;23;20540;-74
2023/01/14 10:23:09;;;;;;;0.67;0.60;;;;;;;;;;6179547;23;20706;-73
2023/01/14 10:25:37;;;;;;;0.60;0.60;;;;;;;;;;6154096;23;20377;-74
2023/01/14 10:28:10;;;;;;;0.70;0.70;;;;;;;;;;6154723;23;20499;-74
2023/01/14 10:30:39;;;;;;;0.60;0.60;;;;;;;;;;6180291;23;20388;-75
2023/01/14 10:33:06;;;;;;;0.60;0.60;;;;;;;;;;6153143;23;20400;-74
2023/01/14 10:35:34;;;;;;;0.70;0.70;;;;;;;;;;6156896;23;20511;-73
2023/01/14 10:38:02;;;;;;;0.70;0.67;;;;;;;;;;6182740;23;20457;-74
2023/01/14 10:40:32;;;;;;;0.67;0.67;;;;;;;;;;6132683;23;20840;-73
2023/01/14 10:43:01;;;;;;;0.70;0.60;;;;;;;;;;6156659;23;20419;-74
2023/01/14 10:45:30;;;;;;;0.60;0.60;;;;;;;;;;6179882;23;20392;-73
2023/01/14 10:48:02;;;;;;;0.67;0.60;;;;;;;;;;6156573;23;20424;-73
2023/01/14 10:50:30;;;;;;;0.60;0.60;;;;;;;;;;6182763;23;20947;-76
2023/01/14 10:53:13;;;;;;;0.60;0.60;;;;;;;;;;6155549;23;20423;-72
2023/01/14 10:55:45;;;;;;;0.60;0.60;;;;;;;;;;6132863;23;20751;-73
2023/01/14 10:58:15;;;;;;;0.60;0.60;;;;;;;;;;6183063;23;20466;-71
2023/01/14 11:00:44;;;;;;;0.60;0.60;;;;;;;;;;6153916;23;20382;-74
2023/01/14 11:03:20;;;;;;;0.60;0.60;;;;;;;;;;6180255;23;20390;-75
2023/01/14 11:05:53;;;;;;;0.70;0.67;;;;;;;;;;6182321;23;20435;-72
2023/01/14 11:08:21;;;;;;;0.60;0.60;;;;;;;;;;6157300;23;20381;-73
2023/01/14 11:10:53;;;;;;;0.60;0.60;;;;;;;;;;6157306;23;20378;-72
2023/01/14 11:13:25;;;;;;;0.60;0.60;;;;;;;;;;6156921;23;20420;-74
2023/01/14 11:15:54;;;;;;;0.60;0.60;;;;;;;;;;6156250;23;20925;-71
2023/01/14 11:18:26;;;;;;;0.60;0.60;;;;;;;;;;6183433;23;20737;-71
2023/01/14 11:20:57;;;;;;;0.60;0.60;;;;;;;;;;6157276;23;20469;-73
2023/01/14 11:23:27;;;;;;;0.70;0.70;;;;;;;;;;6181952;23;20385;-73
2023/01/14 11:25:54;;;;;;;0.60;0.60;;;;;;;;;;6156570;23;20463;-73
2023/01/14 11:28:24;;;;;;;0.60;0.60;;;;;;;;;;6157143;23;20436;-74
2023/01/14 11:30:53;;;;;;;0.70;0.70;;;;;;;;;;6156953;23;20893;-75
2023/01/14 11:33:22;;;;;;;0.60;0.60;;;;;;;;;;6183295;23;20698;-73
2023/01/14 11:36:10;;;;;;;0.60;0.60;;;;;;;;;;6182866;23;20381;-72
2023/01/14 11:38:44;;;;;;;0.60;0.60;;;;;;;;;;6132327;23;20932;-72
2023/01/14 11:41:30;;;;;;;0.60;0.60;;;;;;;;;;6156408;23;20381;-73
2023/01/14 11:43:58;;;;;;;0.60;0.60;;;;;;;;;;6182747;23;20471;-73
2023/01/14 11:46:25;;;;;;;0.67;0.63;;;;;;;;;;6182590;23;20872;-73
2023/01/14 11:49:02;;;;;;;0.70;0.70;;;;;;;;;;6156992;23;20815;-72
2023/01/14 11:51:30;;;;;;;0.70;0.70;;;;;;;;;;6156140;23;20416;-73
2023/01/14 11:54:02;;;;;;;0.60;0.60;;;;;;;;;;6158078;23;20379;-73
2023/01/14 11:56:31;;;;;;;0.60;0.60;;;;;;;;;;6156505;23;20444;-73
2023/01/14 11:59:00;;;;;;;0.60;0.60;;;;;;;;;;6182031;23;20468;-74
2023/01/14 12:01:30;;;;;;;0.60;0.60;;;;;;;;;;6180219;23;20403;-75
2023/01/14 12:04:00;;;;;;;0.60;0.60;;;;;;;;;;6153619;23;20464;-75
2023/01/14 12:06:29;;;;;;;0.70;0.70;;;;;;;;;;6154768;23;20420;-74
2023/01/14 12:09:00;;;;;;;0.60;0.60;;;;;;;;;;6181728;23;20758;-74
2023/01/14 12:11:29;;;;;;;0.60;0.60;;;;;;;;;;6154657;23;20510;-73
2023/01/14 12:16:52;;;;;;;0.60;0.60;;;;;;;;;;6156902;23;20428;-74
2023/01/14 12:19:26;;;;;;;0.60;0.60;;;;;;;;;;6182840;23;20443;-72
2023/01/14 12:22:17;;;;;;;0.70;0.70;;;;;;;;;;6162367;23;20381;-74
2023/01/14 12:24:51;;;;;;;0.60;0.60;;;;;;;;;;6183747;23;20410;-75
2023/01/14 12:27:42;;;;;;;0.60;0.60;;;;;;;;;;6184573;23;20384;-74
2023/01/14 12:30:15;;;;;;;0.60;0.60;;;;;;;;;;6183789;23;20377;-74
2023/01/14 12:32:47;;;;;;;0.60;0.60;;;;;;;;;;6153466;23;20450;-72
2023/01/14 12:35:14;;;;;;;0.70;0.70;;;;;;;;;;6155223;23;20412;-73
2023/01/14 12:37:47;;;;;;;0.70;0.70;;;;;;;;;;6156107;23;20404;-74
2023/01/14 12:45:53;;;;;;;0.70;0.70;;;;;;;;;;6158461;23;20794;-75
2023/01/14 12:48:21;;;;;;;0.60;0.60;;;;;;;;;;6158888;23;20487;-77
2023/01/14 12:50:50;;;;;;;0.60;0.60;;;;;;;;;;6158383;23;20432;-75
2023/01/14 12:53:21;;;;;;;0.60;0.60;;;;;;;;;;6158740;23;20415;-75
2023/01/14 12:55:50;;;;;;;0.60;0.60;;;;;;;;;;6183533;23;20413;-74
2023/01/14 12:58:17;;;;;;;0.60;0.60;;;;;;;;;;6183285;23;20855;-75
2023/01/14 13:00:48;;;;;;;0.60;0.60;;;;;;;;;;6183876;23;20860;-74
2023/01/14 13:03:18;;;;;;;0.60;0.60;;;;;;;;;;6158220;23;20437;-74
2023/01/14 13:06:08;;;;;;;0.60;0.60;;;;;;;;;;6185229;23;20431;-73
2023/01/14 13:08:37;;;;;;;0.60;0.60;;;;;;;;;;6185114;23;20400;-75
2023/01/14 13:11:06;;;;;;;0.60;0.60;;;;;;;;;;6134229;23;20472;-73
2023/01/14 13:13:34;;;;;;;0.60;0.60;;;;;;;;;;6158058;23;20421;-75
2023/01/14 13:18:56;;;;;;;0.60;0.60;;;;;;;;;;6186360;22;20456;-74
2023/01/14 13:21:39;;;;;;;0.60;0.60;;;;;;;;;;6183984;23;20911;-74
2023/01/14 13:24:26;;;;;;;0.60;0.60;;;;;;;;;;6177890;23;20511;-76
2023/01/14 13:26:55;;;;;;;0.70;0.70;;;;;;;;;;6151973;23;20686;-75
2023/01/14 13:29:24;;;;;;;0.60;0.60;;;;;;;;;;6151901;23;20389;-75
2023/01/14 13:31:53;;;;;;;0.60;0.60;;;;;;;;;;6153658;23;20425;-75
2023/01/14 13:34:33;;;;;;;0.60;0.60;;;;;;;;;;6152757;23;20445;-75
2023/01/14 13:37:15;;;;;;;0.60;0.60;;;;;;;;;;6151279;23;20378;-75
2023/01/14 13:39:47;;;;;;;0.60;0.60;;;;;;;;;;6118493;23;20973;-75
2023/01/14 13:42:16;;;;;;;0.60;0.53;;;;;;;;;;6123768;23;20387;-75
2023/01/14 13:44:45;;;;;;;0.60;0.50;;;;;;;;;;6123082;23;20408;-76
2023/01/14 13:50:18;;;;;;;0.60;0.60;;;;;;;;;;6191821;22;20469;-80
2023/01/14 13:52:47;;;;;;;0.60;0.60;;;;;;;;;;6161286;23;20412;-78
2023/01/14 13:55:19;;;;;;;0.60;0.60;;;;;;;;;;6183658;23;20403;-78
2023/01/14 13:57:49;;;;;;;0.60;0.60;;;;;;;;;;6211073;23;20376;-75
2023/01/14 14:00:37;;;;;;;0.60;0.60;;;;;;;;;;6184715;23;20829;-76
2023/01/14 14:03:23;;;;;;;0.63;0.63;;;;;;;;;;6236088;22;20451;-75
2023/01/14 14:06:09;;;;;;;0.60;0.60;;;;;;;;;;6215191;23;20412;-75
2023/01/14 14:08:37;;;;;;;0.60;0.60;;;;;;;;;;6246965;23;20392;-76
2023/01/14 14:11:06;;;;;;;0.70;0.70;;;;;;;;;;6216668;23;20409;-76
2023/01/14 14:16:22;;;;;;;0.60;0.60;;;;;;;;;;6242709;23;20364;-76
2023/01/14 14:18:54;;;;;;;0.60;0.60;;;;;;;;;;6243755;23;20448;-75
2023/01/14 14:21:22;;;;;;;0.60;0.60;;;;;;;;;;6216082;23;20450;-76
2023/01/14 14:23:52;;;;;;;0.60;0.60;;;;;;;;;;6243743;23;20391;-78
2023/01/14 14:26:21;;;;;;;0.60;0.60;;;;;;;;;;6190402;23;20414;-77
2023/01/14 14:28:50;;;;;;;0.60;0.60;;;;;;;;;;6214708;23;20412;-77
2023/01/14 14:31:21;;;;;;;0.60;0.60;;;;;;;;;;6191103;23;20403;-77
2023/01/14 14:33:59;;;;;;;0.60;0.57;;;;;;;;;;6243282;23;20412;-77
2023/01/14 14:36:27;;;;;;;0.60;0.60;;;;;;;;;;6217428;23;20873;-78
2023/01/14 14:38:57;;;;;;;0.60;0.60;;;;;;;;;;6217662;23;20384;-76
2023/01/14 14:41:33;;;;;;;0.60;0.57;;;;;;;;;;6243441;23;20378;-77
2023/01/14 14:44:06;;;;;;;0.60;0.50;;;;;;;;;;6244663;23;20844;-76
2023/01/14 14:46:33;;;;;;;0.60;0.50;;;;;;;;;;6243720;23;20387;-76
2023/01/14 14:49:10;;;;;;;0.60;0.50;;;;;;;;;;6216804;23;20388;-76
2023/01/14 14:51:42;;;;;;;0.70;0.70;;;;;;;;;;6216346;23;20422;-76
2023/01/14 14:54:23;;;;;;;0.63;0.60;;;;;;;;;;6213044;23;20413;-77
2023/01/14 14:56:49;;;;;;;0.60;0.50;;;;;;;;;;6242653;23;20379;-76
2023/01/14 14:59:16;;;;;;;0.60;0.60;;;;;;;;;;6214359;23;20476;-77
2023/01/14 15:01:43;;;;;;;0.60;0.60;;;;;;;;;;6243743;23;20415;-78
2023/01/14 15:04:15;;;;;;;0.60;0.60;;;;;;;;;;6212301;23;20463;-78
2023/01/14 15:06:43;;;;;;;0.60;0.60;;;;;;;;;;6213948;23;20375;-79
2023/01/14 15:09:10;;;;;;;0.60;0.60;;;;;;;;;;6239876;23;20464;-75
2023/01/14 15:11:43;;;;;;;0.60;0.60;;;;;;;;;;6244756;23;20741;-75
2023/01/14 15:14:18;;;;;;;0.70;0.70;;;;;;;;;;6246113;23;20386;-77
2023/01/14 15:16:48;;;;;;;0.63;0.60;;;;;;;;;;6216961;23;20512;-76
2023/01/14 15:19:16;;;;;;;0.60;0.60;;;;;;;;;;6244517;23;20752;-79
2023/01/14 15:22:05;;;;;;;0.60;0.60;;;;;;;;;;6224208;23;20379;-76
2023/01/14 15:24:32;;;;;;;0.70;0.60;;;;;;;;;;6195177;23;20697;-77
2023/01/14 15:27:03;;;;;;;0.60;0.60;;;;;;;;;;6245685;23;20713;-76
2023/01/14 15:29:32;;;;;;;0.60;0.60;;;;;;;;;;6194083;23;20427;-76
2023/01/14 15:32:14;;;;;;;0.70;0.63;;;;;;;;;;6194182;23;20423;-75
2023/01/14 15:34:47;;;;;;;0.70;0.70;;;;;;;;;;6219398;23;20419;-78
2023/01/14 15:37:19;;;;;;;0.60;0.60;;;;;;;;;;6220591;23;20405;-77
2023/01/14 15:39:46;;;;;;;0.60;0.60;;;;;;;;;;6248679;23;20922;-78
2023/01/14 15:42:16;;;;;;;0.60;0.60;;;;;;;;;;6247945;23;20390;-78
2023/01/14 15:44:45;;;;;;;0.60;0.60;;;;;;;;;;6220501;23;20933;-78
2023/01/14 15:47:17;;;;;;;0.77;0.77;;;;;;;;;;6245813;23;20433;-77